LNG Rivers — ZCDE3 — position and weather

sailwx.info

Track history (hours):
 
Tides and Currents Weather Stations Pressure Air Temp Water Temp Dewpoint Dewpoint Depression Visibility Wind Speed Wind Dir Waves Ship Positions

LNG Rivers

Last reported at 2018-May-04 16:52 UTC. Time now 2018-May-24 11:45 UTC.
Position N 12°57' E 069°30'.
Warning: this ship's position is 19 days out of date.

Length 288.7 m; beam 48.1 m; draft 11.1 m.

Type: Ship (hazmat cat B). MMSI: 310370000.

Date/timePositionNaut miles runAvg speedWind from/ knotsBaromVisibWave heightAir tempDewpointWater temp
2018-May-04 16:52N 12°57' E 069°30'5218.6
2018-May-04 14:04N 13°48' E 069°43'1018.9
2018-May-04 13:32N 13°58' E 069°44'17918.8
2018-May-04 04:00N 16°56' E 070°03'9818.4
2018-May-03 22:39N 18°34' E 070°14'418.5
2018-May-03 22:25N 18°38' E 070°15'1218.7
2018-May-03 21:46N 18°50' E 070°16'518.9
2018-May-03 21:29N 18°55' E 070°16'4916.8
2018-May-03 18:34N 19°38' E 070°43'317.7
2018-May-03 18:23N 19°39' E 070°45'1117.7
2018-May-03 17:45N 19°44' E 070°56'517.8
2018-May-03 17:29N 19°46' E 071°01'1117.9
2018-May-03 16:52N 19°49' E 071°12'718.1
2018-May-03 16:30N 19°52' E 071°19'1018.3
2018-May-03 15:58N 19°57' E 071°27'918.8
2018-May-03 15:30N 20°03' E 071°34'1019.2
2018-May-03 15:00N 20°12' E 071°39'1119.1
2018-May-03 14:24N 20°21' E 071°46'819.0
2018-May-03 13:58N 20°28' E 071°51'918.3
2018-May-03 13:30N 20°35' E 071°56'816.9
2018-May-03 13:00N 20°42' E 072°01'917.0
2018-May-03 12:27N 20°49' E 072°07'1015.3
2018-May-03 11:50N 20°59' E 072°09'514.5
2018-May-03 11:29N 21°03' E 072°12'713.4
2018-May-03 10:58N 21°09' E 072°15'612.1
2018-May-03 10:30N 21°15' E 072°17'712.3
2018-May-03 09:58N 21°21' E 072°20'612.1
2018-May-03 09:30N 21°25' E 072°23'811.5
2018-May-03 08:48N 21°33' E 072°27'412.2
2018-May-03 08:28N 21°37' E 072°28'4 8.1
2018-May-03 08:00N 21°40' E 072°30'1 1.7
2018-May-03 07:30N 21°40' E 072°31'0 0.1
2018-May-03 06:57N 21°40' E 072°31'0 0.0
2018-May-03 06:14N 21°40' E 072°31'0 0.0
2018-May-03 05:50N 21°40' E 072°31'0 0.0
2018-May-03 01:49N 21°40' E 072°31'0 0.0
2018-May-03 01:30N 21°40' E 072°31'0 0.0
2018-May-02 23:24N 21°40' E 072°31'0 0.0
2018-May-02 22:53N 21°40' E 072°31'0 0.0
2018-May-02 22:30N 21°40' E 072°31'0 0.0
2018-May-02 21:59N 21°40' E 072°31'0 0.0
2018-May-02 11:36N 21°40' E 072°31'0 0.1
2018-May-02 11:30N 21°40' E 072°31'0 0.0
2018-May-02 11:00N 21°40' E 072°31'0 0.0
2018-May-02 10:30N 21°40' E 072°31'0 0.0
2018-May-02 09:42N 21°40' E 072°31'0 0.0
2018-May-02 09:29N 21°40' E 072°31'0 0.0
2018-May-02 08:29N 21°40' E 072°31'0 0.0
2018-May-02 07:59N 21°40' E 072°31'0 0.0
2018-May-02 07:04N 21°40' E 072°31'0 0.1
2018-May-02 06:58N 21°40' E 072°31'0 0.0
2018-May-02 06:22N 21°40' E 072°31'0 0.0
2018-May-02 05:58N 21°40' E 072°31'0 0.0
2018-May-02 05:10N 21°40' E 072°31'0 0.0
2018-May-02 04:58N 21°40' E 072°31'0 0.0
2018-May-02 04:27N 21°40' E 072°31'0 0.0
2018-May-02 02:26N 21°40' E 072°31'0 0.0
2018-May-02 01:44N 21°40' E 072°31'0 0.0
2018-May-02 01:26N 21°40' E 072°31'0 0.0
2018-May-02 00:54N 21°40' E 072°31'0 0.0
2018-May-02 00:30N 21°40' E 072°31'0 0.0
2018-May-01 23:45N 21°40' E 072°31'0 1.1
2018-May-01 23:22N 21°40' E 072°30'1 4.0
2018-May-01 23:00N 21°40' E 072°29'4 5.2
2018-May-01 22:17N 21°36' E 072°28'3 7.1
2018-May-01 21:54N 21°33' E 072°27'4 9.3
2018-May-01 21:30N 21°30' E 072°26'611.0
2018-May-01 20:58N 21°25' E 072°23'714.5
2018-May-01 20:30N 21°19' E 072°20'816.2
2018-May-01 20:00N 21°12' E 072°16'815.3
2018-May-01 19:30N 21°05' E 072°12'816.2
2018-May-01 19:00N 20°57' E 072°08'714.7
2018-May-01 18:30N 20°50' E 072°07'815.2
2018-May-01 18:00N 20°43' E 072°03'815.7
2018-May-01 17:29N 20°37' E 071°58'816.3
2018-May-01 17:00N 20°31' E 071°52'814.7
2018-May-01 16:29N 20°26' E 071°47'714.4
2018-May-01 16:00N 20°20' E 071°42'612.8
2018-May-01 15:30N 20°15' E 071°38'714.0
2018-May-01 15:00N 20°09' E 071°34'714.4
2018-May-01 14:30N 20°03' E 071°30'714.2
2018-May-01 14:00N 19°58' E 071°25'612.8
2018-May-01 13:30N 19°53' E 071°20'713.3
2018-May-01 13:00N 19°51' E 071°14'713.8
2018-May-01 12:30N 19°48' E 071°07'814.0
2018-May-01 11:55N 19°45' E 070°59'714.1
2018-May-01 11:26N 19°42' E 070°52'614.3
2018-May-01 11:00N 19°40' E 070°46'814.4
2018-May-01 10:27N 19°37' E 070°38'914.5
2018-May-01 09:49N 19°33' E 070°29'514.6
2018-May-01 09:26N 19°31' E 070°24'612.1
2018-May-01 08:56N 19°26' E 070°20'1113.7
2018-May-01 08:09N 19°16' E 070°19'313.8
2018-May-01 07:57N 19°13' E 070°19'713.8
2018-May-01 07:28N 19°07' E 070°18'713.9
2018-May-01 07:00N 18°60' E 070°17'714.0
2018-May-01 06:29N 18°53' E 070°16'714.6
2018-May-01 06:00N 18°46' E 070°15'1315.4
2018-May-01 05:08N 18°33' E 070°14'815.6
2018-May-01 04:37N 18°24' E 070°13'215.5
2018-May-01 04:29N 18°23' E 070°13'715.4
2018-May-01 04:01N 18°15' E 070°12'2111.3
2018-May-01 02:12N 17°55' E 070°11'315.8
2018-May-01 02:00N 17°52' E 070°10'815.6
2018-May-01 01:29N 17°44' E 070°10'715.6
2018-May-01 01:01N 17°36' E 070°09'915.4
2018-May-01 00:24N 17°27' E 070°08'715.4
2018-Apr-30 23:59N 17°20' E 070°08'915.6
2018-Apr-30 23:24N 17°12' E 070°07'513.1
2018-Apr-30 23:00N 17°07' E 070°04'814.6
2018-Apr-30 22:28N 16°59' E 070°03'3215.6
2018-Apr-30 20:26N 16°28' E 070°01'23 3.8
2018-Apr-30 14:26N 16°05' E 069°56'2115.7
2018-Apr-30 13:06N 15°45' E 069°54'214.6
2018-Apr-30 12:56N 15°42' E 069°54'5111.1
2018-Apr-30 08:21N 16°33' E 069°60'614.6
2018-Apr-30 07:55N 16°27' E 069°59'915.5
2018-Apr-30 07:19N 16°17' E 069°58'  
Track history (hours):
 
Tides and Currents Weather Stations Pressure Air Temp Water Temp Dewpoint Dewpoint Depression Visibility Wind Speed Wind Dir Waves Ship Positions

LNG Rivers

Last reported at 2018-May-04 16:52 UTC. Time now 2018-May-24 11:45 UTC.
Position N 12°57' E 069°30'.
Warning: this ship's position is 19 days out of date.

Length 288.7 m; beam 48.1 m; draft 11.1 m.

Type: Ship (hazmat cat B). MMSI: 310370000.

Date/timePositionNaut miles runAvg speedWind from/ knotsBaromVisibWave heightAir tempDewpointWater temp
2018-May-04 16:52N 12°57' E 069°30'5218.6
2018-May-04 14:04N 13°48' E 069°43'1018.9
2018-May-04 13:32N 13°58' E 069°44'17918.8
2018-May-04 04:00N 16°56' E 070°03'9818.4
2018-May-03 22:39N 18°34' E 070°14'418.5
2018-May-03 22:25N 18°38' E 070°15'1218.7
2018-May-03 21:46N 18°50' E 070°16'518.9
2018-May-03 21:29N 18°55' E 070°16'4916.8
2018-May-03 18:34N 19°38' E 070°43'317.7
2018-May-03 18:23N 19°39' E 070°45'1117.7
2018-May-03 17:45N 19°44' E 070°56'517.8
2018-May-03 17:29N 19°46' E 071°01'1117.9
2018-May-03 16:52N 19°49' E 071°12'718.1
2018-May-03 16:30N 19°52' E 071°19'1018.3
2018-May-03 15:58N 19°57' E 071°27'918.8
2018-May-03 15:30N 20°03' E 071°34'1019.2
2018-May-03 15:00N 20°12' E 071°39'1119.1
2018-May-03 14:24N 20°21' E 071°46'819.0
2018-May-03 13:58N 20°28' E 071°51'918.3
2018-May-03 13:30N 20°35' E 071°56'816.9
2018-May-03 13:00N 20°42' E 072°01'917.0
2018-May-03 12:27N 20°49' E 072°07'1015.3
2018-May-03 11:50N 20°59' E 072°09'514.5
2018-May-03 11:29N 21°03' E 072°12'713.4
2018-May-03 10:58N 21°09' E 072°15'612.1
2018-May-03 10:30N 21°15' E 072°17'712.3
2018-May-03 09:58N 21°21' E 072°20'612.1
2018-May-03 09:30N 21°25' E 072°23'811.5
2018-May-03 08:48N 21°33' E 072°27'412.2
2018-May-03 08:28N 21°37' E 072°28'4 8.1
2018-May-03 08:00N 21°40' E 072°30'1 1.7
2018-May-03 07:30N 21°40' E 072°31'0 0.1
2018-May-03 06:57N 21°40' E 072°31'0 0.0
2018-May-03 06:14N 21°40' E 072°31'0 0.0
2018-May-03 05:50N 21°40' E 072°31'0 0.0
2018-May-03 01:49N 21°40' E 072°31'0 0.0
2018-May-03 01:30N 21°40' E 072°31'0 0.0
2018-May-02 23:24N 21°40' E 072°31'0 0.0
2018-May-02 22:53N 21°40' E 072°31'0 0.0
2018-May-02 22:30N 21°40' E 072°31'0 0.0
2018-May-02 21:59N 21°40' E 072°31'0 0.0
2018-May-02 11:36N 21°40' E 072°31'0 0.1
2018-May-02 11:30N 21°40' E 072°31'0 0.0
2018-May-02 11:00N 21°40' E 072°31'0 0.0
2018-May-02 10:30N 21°40' E 072°31'0 0.0
2018-May-02 09:42N 21°40' E 072°31'0 0.0
2018-May-02 09:29N 21°40' E 072°31'0 0.0
2018-May-02 08:29N 21°40' E 072°31'0 0.0
2018-May-02 07:59N 21°40' E 072°31'0 0.0
2018-May-02 07:04N 21°40' E 072°31'0 0.1
2018-May-02 06:58N 21°40' E 072°31'0 0.0
2018-May-02 06:22N 21°40' E 072°31'0 0.0
2018-May-02 05:58N 21°40' E 072°31'0 0.0
2018-May-02 05:10N 21°40' E 072°31'0 0.0
2018-May-02 04:58N 21°40' E 072°31'0 0.0
2018-May-02 04:27N 21°40' E 072°31'0 0.0
2018-May-02 02:26N 21°40' E 072°31'0 0.0
2018-May-02 01:44N 21°40' E 072°31'0 0.0
2018-May-02 01:26N 21°40' E 072°31'0 0.0
2018-May-02 00:54N 21°40' E 072°31'0 0.0
2018-May-02 00:30N 21°40' E 072°31'0 0.0
2018-May-01 23:45N 21°40' E 072°31'0 1.1
2018-May-01 23:22N 21°40' E 072°30'1 4.0
2018-May-01 23:00N 21°40' E 072°29'4 5.2
2018-May-01 22:17N 21°36' E 072°28'3 7.1
2018-May-01 21:54N 21°33' E 072°27'4 9.3
2018-May-01 21:30N 21°30' E 072°26'611.0
2018-May-01 20:58N 21°25' E 072°23'714.5
2018-May-01 20:30N 21°19' E 072°20'816.2
2018-May-01 20:00N 21°12' E 072°16'815.3
2018-May-01 19:30N 21°05' E 072°12'816.2
2018-May-01 19:00N 20°57' E 072°08'714.7
2018-May-01 18:30N 20°50' E 072°07'815.2
2018-May-01 18:00N 20°43' E 072°03'815.7
2018-May-01 17:29N 20°37' E 071°58'816.3
2018-May-01 17:00N 20°31' E 071°52'814.7
2018-May-01 16:29N 20°26' E 071°47'714.4
2018-May-01 16:00N 20°20' E 071°42'612.8
2018-May-01 15:30N 20°15' E 071°38'714.0
2018-May-01 15:00N 20°09' E 071°34'714.4
2018-May-01 14:30N 20°03' E 071°30'714.2
2018-May-01 14:00N 19°58' E 071°25'612.8
2018-May-01 13:30N 19°53' E 071°20'713.3
2018-May-01 13:00N 19°51' E 071°14'713.8
2018-May-01 12:30N 19°48' E 071°07'814.0
2018-May-01 11:55N 19°45' E 070°59'714.1
2018-May-01 11:26N 19°42' E 070°52'614.3
2018-May-01 11:00N 19°40' E 070°46'814.4
2018-May-01 10:27N 19°37' E 070°38'914.5
2018-May-01 09:49N 19°33' E 070°29'514.6
2018-May-01 09:26N 19°31' E 070°24'612.1
2018-May-01 08:56N 19°26' E 070°20'1113.7
2018-May-01 08:09N 19°16' E 070°19'313.8
2018-May-01 07:57N 19°13' E 070°19'713.8
2018-May-01 07:28N 19°07' E 070°18'713.9
2018-May-01 07:00N 18°60' E 070°17'714.0
2018-May-01 06:29N 18°53' E 070°16'714.6
2018-May-01 06:00N 18°46' E 070°15'1315.4
2018-May-01 05:08N 18°33' E 070°14'815.6
2018-May-01 04:37N 18°24' E 070°13'215.5
2018-May-01 04:29N 18°23' E 070°13'715.4
2018-May-01 04:01N 18°15' E 070°12'2111.3
2018-May-01 02:12N 17°55' E 070°11'315.8
2018-May-01 02:00N 17°52' E 070°10'815.6
2018-May-01 01:29N 17°44' E 070°10'715.6
2018-May-01 01:01N 17°36' E 070°09'915.4
2018-May-01 00:24N 17°27' E 070°08'715.4
2018-Apr-30 23:59N 17°20' E 070°08'915.6
2018-Apr-30 23:24N 17°12' E 070°07'513.1
2018-Apr-30 23:00N 17°07' E 070°04'814.6
2018-Apr-30 22:28N 16°59' E 070°03'3215.6
2018-Apr-30 20:26N 16°28' E 070°01'23 3.8
2018-Apr-30 14:26N 16°05' E 069°56'2115.7
2018-Apr-30 13:06N 15°45' E 069°54'214.6
2018-Apr-30 12:56N 15°42' E 069°54'5111.1
2018-Apr-30 08:21N 16°33' E 069°60'614.6
2018-Apr-30 07:55N 16°27' E 069°59'915.5
2018-Apr-30 07:19N 16°17' E 069°58'  

Dump ship's entire track history